sensor_id;sensor_type;location;lat;lon;timestamp;temperature;humidity
46217;DHT22;47258;59.424;13.482;2024-03-02T00:01:58;5.60;99.90
46217;DHT22;47258;59.424;13.482;2024-03-02T00:04:24;5.60;99.90
46217;DHT22;47258;59.424;13.482;2024-03-02T00:06:53;5.60;99.90
46217;DHT22;47258;59.424;13.482;2024-03-02T00:09:20;5.70;99.90
46217;DHT22;47258;59.424;13.482;2024-03-02T00:11:46;5.70;99.90
46217;DHT22;47258;59.424;13.482;2024-03-02T00:14:12;5.60;99.90
46217;DHT22;47258;59.424;13.482;2024-03-02T00:16:38;5.70;99.90
46217;DHT22;47258;59.424;13.482;2024-03-02T00:19:05;5.70;99.90
46217;DHT22;47258;59.424;13.482;2024-03-02T00:21:31;5.70;99.90
46217;DHT22;47258;59.424;13.482;2024-03-02T00:23:58;5.60;99.90
46217;DHT22;47258;59.424;13.482;2024-03-02T00:26:24;5.70;99.90
46217;DHT22;47258;59.424;13.482;2024-03-02T00:28:53;5.70;99.90
46217;DHT22;47258;59.424;13.482;2024-03-02T00:31:20;5.70;99.90
46217;DHT22;47258;59.424;13.482;2024-03-02T00:33:47;5.60;99.90
46217;DHT22;47258;59.424;13.482;2024-03-02T00:36:14;5.60;99.90
46217;DHT22;47258;59.424;13.482;2024-03-02T00:38:48;5.60;99.90
46217;DHT22;47258;59.424;13.482;2024-03-02T00:41:27;5.60;99.90
46217;DHT22;47258;59.424;13.482;2024-03-02T00:44:01;5.60;99.90
46217;DHT22;47258;59.424;13.482;2024-03-02T00:46:29;5.70;99.90
46217;DHT22;47258;59.424;13.482;2024-03-02T00:49:00;5.70;99.90
46217;DHT22;47258;59.424;13.482;2024-03-02T00:51:29;5.70;99.90
46217;DHT22;47258;59.424;13.482;2024-03-02T00:53:57;5.70;99.90
46217;DHT22;47258;59.424;13.482;2024-03-02T00:56:24;5.70;99.90
46217;DHT22;47258;59.424;13.482;2024-03-02T00:58:51;5.60;99.90
46217;DHT22;47258;59.424;13.482;2024-03-02T01:01:17;5.60;99.90
46217;DHT22;47258;59.424;13.482;2024-03-02T01:03:43;5.60;99.90
46217;DHT22;47258;59.424;13.482;2024-03-02T01:06:09;5.60;99.90
46217;DHT22;47258;59.424;13.482;2024-03-02T01:08:35;5.60;99.90
46217;DHT22;47258;59.424;13.482;2024-03-02T01:11:02;5.50;99.90
46217;DHT22;47258;59.424;13.482;2024-03-02T01:13:28;5.50;99.90
46217;DHT22;47258;59.424;13.482;2024-03-02T01:15:54;5.50;99.90
46217;DHT22;47258;59.424;13.482;2024-03-02T01:18:20;5.40;99.90
46217;DHT22;47258;59.424;13.482;2024-03-02T01:20:47;5.50;99.90
46217;DHT22;47258;59.424;13.482;2024-03-02T01:23:13;5.50;99.90
46217;DHT22;47258;59.424;13.482;2024-03-02T01:25:39;5.50;99.90
46217;DHT22;47258;59.424;13.482;2024-03-02T01:28:05;5.50;99.90
46217;DHT22;47258;59.424;13.482;2024-03-02T01:30:31;5.40;99.90
46217;DHT22;47258;59.424;13.482;2024-03-02T01:32:57;5.40;99.90
46217;DHT22;47258;59.424;13.482;2024-03-02T01:35:24;5.40;99.90
46217;DHT22;47258;59.424;13.482;2024-03-02T01:37:50;5.40;99.90
46217;DHT22;47258;59.424;13.482;2024-03-02T01:40:16;5.30;99.90
46217;DHT22;47258;59.424;13.482;2024-03-02T01:42:43;5.30;99.90
46217;DHT22;47258;59.424;13.482;2024-03-02T01:45:09;5.20;99.90
46217;DHT22;47258;59.424;13.482;2024-03-02T01:47:35;5.20;99.90
46217;DHT22;47258;59.424;13.482;2024-03-02T01:50:01;5.20;99.90
46217;DHT22;47258;59.424;13.482;2024-03-02T01:52:27;5.20;99.90
46217;DHT22;47258;59.424;13.482;2024-03-02T01:54:53;5.20;99.90
46217;DHT22;47258;59.424;13.482;2024-03-02T01:57:19;5.20;99.90
46217;DHT22;47258;59.424;13.482;2024-03-02T01:59:45;5.20;99.90
46217;DHT22;47258;59.424;13.482;2024-03-02T02:02:14;5.20;99.90
46217;DHT22;47258;59.424;13.482;2024-03-02T02:04:40;5.20;99.90
46217;DHT22;47258;59.424;13.482;2024-03-02T02:07:05;5.20;99.90
46217;DHT22;47258;59.424;13.482;2024-03-02T02:09:32;5.20;99.90
46217;DHT22;47258;59.424;13.482;2024-03-02T02:11:58;5.20;99.90
46217;DHT22;47258;59.424;13.482;2024-03-02T02:14:24;5.20;99.90
46217;DHT22;47258;59.424;13.482;2024-03-02T02:16:50;5.20;99.90
46217;DHT22;47258;59.424;13.482;2024-03-02T02:19:16;5.20;99.90
46217;DHT22;47258;59.424;13.482;2024-03-02T02:21:44;5.20;99.90
46217;DHT22;47258;59.424;13.482;2024-03-02T02:24:10;5.20;99.90
46217;DHT22;47258;59.424;13.482;2024-03-02T02:26:38;5.20;99.90
46217;DHT22;47258;59.424;13.482;2024-03-02T02:29:04;5.20;99.90
46217;DHT22;47258;59.424;13.482;2024-03-02T02:31:40;5.30;99.90
46217;DHT22;47258;59.424;13.482;2024-03-02T02:34:06;5.30;99.90
46217;DHT22;47258;59.424;13.482;2024-03-02T02:36:32;5.20;99.90
46217;DHT22;47258;59.424;13.482;2024-03-02T02:38:58;5.20;99.90
46217;DHT22;47258;59.424;13.482;2024-03-02T02:41:25;5.20;99.90
46217;DHT22;47258;59.424;13.482;2024-03-02T02:43:51;5.20;99.90
46217;DHT22;47258;59.424;13.482;2024-03-02T02:46:17;5.20;99.90
46217;DHT22;47258;59.424;13.482;2024-03-02T02:48:42;5.20;99.90
46217;DHT22;47258;59.424;13.482;2024-03-02T02:51:08;5.10;99.90
46217;DHT22;47258;59.424;13.482;2024-03-02T02:53:34;5.10;99.90
46217;DHT22;47258;59.424;13.482;2024-03-02T02:56:00;5.10;99.90
46217;DHT22;47258;59.424;13.482;2024-03-02T02:58:27;5.10;99.90
46217;DHT22;47258;59.424;13.482;2024-03-02T03:00:52;5.10;99.90
46217;DHT22;47258;59.424;13.482;2024-03-02T03:03:20;5.10;99.90
46217;DHT22;47258;59.424;13.482;2024-03-02T03:05:45;5.10;99.90
46217;DHT22;47258;59.424;13.482;2024-03-02T03:08:11;5.10;99.90
46217;DHT22;47258;59.424;13.482;2024-03-02T03:10:37;5.00;99.90
46217;DHT22;47258;59.424;13.482;2024-03-02T03:13:02;5.00;99.90
46217;DHT22;47258;59.424;13.482;2024-03-02T03:15:28;5.10;99.90
46217;DHT22;47258;59.424;13.482;2024-03-02T03:17:54;5.10;99.90
46217;DHT22;47258;59.424;13.482;2024-03-02T03:20:20;5.10;99.90
46217;DHT22;47258;59.424;13.482;2024-03-02T03:22:46;5.10;99.90
46217;DHT22;47258;59.424;13.482;2024-03-02T03:25:12;5.10;99.90
46217;DHT22;47258;59.424;13.482;2024-03-02T03:27:38;5.20;99.90
46217;DHT22;47258;59.424;13.482;2024-03-02T03:30:04;5.20;99.90
46217;DHT22;47258;59.424;13.482;2024-03-02T03:32:31;5.10;99.90
46217;DHT22;47258;59.424;13.482;2024-03-02T03:34:57;5.10;99.90
46217;DHT22;47258;59.424;13.482;2024-03-02T03:37:22;5.10;99.90
46217;DHT22;47258;59.424;13.482;2024-03-02T03:39:49;5.10;99.90
46217;DHT22;47258;59.424;13.482;2024-03-02T03:42:15;5.10;99.90
46217;DHT22;47258;59.424;13.482;2024-03-02T03:44:40;5.10;99.90
46217;DHT22;47258;59.424;13.482;2024-03-02T03:47:07;5.00;99.90
46217;DHT22;47258;59.424;13.482;2024-03-02T03:49:32;5.00;99.90
46217;DHT22;47258;59.424;13.482;2024-03-02T03:51:58;5.00;99.90
46217;DHT22;47258;59.424;13.482;2024-03-02T03:54:24;4.90;99.90
46217;DHT22;47258;59.424;13.482;2024-03-02T03:56:49;4.90;99.90
46217;DHT22;47258;59.424;13.482;2024-03-02T03:59:15;4.90;99.90
46217;DHT22;47258;59.424;13.482;2024-03-02T04:01:41;4.90;99.90
46217;DHT22;47258;59.424;13.482;2024-03-02T04:04:06;4.90;99.90
46217;DHT22;47258;59.424;13.482;2024-03-02T04:06:32;4.90;99.90
46217;DHT22;47258;59.424;13.482;2024-03-02T04:08:58;4.90;99.90
46217;DHT22;47258;59.424;13.482;2024-03-02T04:11:23;4.90;99.90
46217;DHT22;47258;59.424;13.482;2024-03-02T04:13:49;4.80;99.90
46217;DHT22;47258;59.424;13.482;2024-03-02T04:16:15;4.80;99.90
46217;DHT22;47258;59.424;13.482;2024-03-02T04:18:40;4.80;99.90
46217;DHT22;47258;59.424;13.482;2024-03-02T04:21:07;4.80;99.90
46217;DHT22;47258;59.424;13.482;2024-03-02T04:23:33;4.80;99.90
46217;DHT22;47258;59.424;13.482;2024-03-02T04:25:59;4.80;99.90
46217;DHT22;47258;59.424;13.482;2024-03-02T04:28:25;4.90;99.90
46217;DHT22;47258;59.424;13.482;2024-03-02T04:30:50;4.80;99.90
46217;DHT22;47258;59.424;13.482;2024-03-02T04:33:16;4.90;99.90
46217;DHT22;47258;59.424;13.482;2024-03-02T04:35:42;4.90;99.90
46217;DHT22;47258;59.424;13.482;2024-03-02T04:38:07;4.90;99.90
46217;DHT22;47258;59.424;13.482;2024-03-02T04:40:33;4.90;99.90
46217;DHT22;47258;59.424;13.482;2024-03-02T04:42:59;4.90;99.90
46217;DHT22;47258;59.424;13.482;2024-03-02T04:45:25;4.90;99.90
46217;DHT22;47258;59.424;13.482;2024-03-02T04:47:50;4.90;99.90
46217;DHT22;47258;59.424;13.482;2024-03-02T04:50:16;4.80;99.90
46217;DHT22;47258;59.424;13.482;2024-03-02T04:52:42;4.80;99.90
46217;DHT22;47258;59.424;13.482;2024-03-02T04:55:07;4.80;99.90
46217;DHT22;47258;59.424;13.482;2024-03-02T04:57:42;4.90;99.90
46217;DHT22;47258;59.424;13.482;2024-03-02T05:00:09;4.80;99.90
46217;DHT22;47258;59.424;13.482;2024-03-02T05:02:35;4.80;99.90
46217;DHT22;47258;59.424;13.482;2024-03-02T05:05:01;4.80;99.90
46217;DHT22;47258;59.424;13.482;2024-03-02T05:07:28;4.80;99.90
46217;DHT22;47258;59.424;13.482;2024-03-02T05:09:53;4.80;99.90
46217;DHT22;47258;59.424;13.482;2024-03-02T05:12:19;4.80;99.90
46217;DHT22;47258;59.424;13.482;2024-03-02T05:15:03;4.90;99.90
46217;DHT22;47258;59.424;13.482;2024-03-02T05:17:29;4.90;99.90
46217;DHT22;47258;59.424;13.482;2024-03-02T05:19:55;4.90;99.90
46217;DHT22;47258;59.424;13.482;2024-03-02T05:22:21;4.80;99.90
46217;DHT22;47258;59.424;13.482;2024-03-02T05:24:46;4.90;99.90
46217;DHT22;47258;59.424;13.482;2024-03-02T05:27:12;4.80;99.90
46217;DHT22;47258;59.424;13.482;2024-03-02T05:29:38;4.80;99.90
46217;DHT22;47258;59.424;13.482;2024-03-02T05:32:04;4.70;99.90
46217;DHT22;47258;59.424;13.482;2024-03-02T05:34:30;4.60;99.90
46217;DHT22;47258;59.424;13.482;2024-03-02T05:36:56;4.50;99.90
46217;DHT22;47258;59.424;13.482;2024-03-02T05:39:23;4.50;99.90
46217;DHT22;47258;59.424;13.482;2024-03-02T05:41:49;4.50;99.90
46217;DHT22;47258;59.424;13.482;2024-03-02T05:44:14;4.50;99.90
46217;DHT22;47258;59.424;13.482;2024-03-02T05:46:41;4.40;99.90
46217;DHT22;47258;59.424;13.482;2024-03-02T05:49:07;4.40;99.90
46217;DHT22;47258;59.424;13.482;2024-03-02T05:51:35;4.30;99.90
46217;DHT22;47258;59.424;13.482;2024-03-02T05:54:01;4.30;99.90
46217;DHT22;47258;59.424;13.482;2024-03-02T05:56:28;4.30;99.90
46217;DHT22;47258;59.424;13.482;2024-03-02T05:58:54;4.30;99.90
46217;DHT22;47258;59.424;13.482;2024-03-02T06:01:46;4.30;99.90
46217;DHT22;47258;59.424;13.482;2024-03-02T06:04:17;4.40;99.90
46217;DHT22;47258;59.424;13.482;2024-03-02T06:06:43;4.40;99.90
46217;DHT22;47258;59.424;13.482;2024-03-02T06:09:10;4.40;99.90
46217;DHT22;47258;59.424;13.482;2024-03-02T06:11:41;4.40;99.90
46217;DHT22;47258;59.424;13.482;2024-03-02T06:14:08;4.50;99.90
46217;DHT22;47258;59.424;13.482;2024-03-02T06:16:34;4.50;99.90
46217;DHT22;47258;59.424;13.482;2024-03-02T06:19:01;4.60;99.90
46217;DHT22;47258;59.424;13.482;2024-03-02T06:21:28;4.60;99.90
46217;DHT22;47258;59.424;13.482;2024-03-02T06:23:54;4.60;99.90
46217;DHT22;47258;59.424;13.482;2024-03-02T06:26:20;4.60;99.90
46217;DHT22;47258;59.424;13.482;2024-03-02T06:28:46;4.60;99.90
46217;DHT22;47258;59.424;13.482;2024-03-02T06:31:12;4.60;99.90
46217;DHT22;47258;59.424;13.482;2024-03-02T06:33:38;4.70;99.90
46217;DHT22;47258;59.424;13.482;2024-03-02T06:36:05;4.70;99.90
46217;DHT22;47258;59.424;13.482;2024-03-02T06:38:34;4.60;99.90
46217;DHT22;47258;59.424;13.482;2024-03-02T06:41:00;4.60;99.90
46217;DHT22;47258;59.424;13.482;2024-03-02T06:43:26;4.60;99.90
46217;DHT22;47258;59.424;13.482;2024-03-02T06:45:51;4.60;99.90
46217;DHT22;47258;59.424;13.482;2024-03-02T06:48:18;4.60;99.90
46217;DHT22;47258;59.424;13.482;2024-03-02T06:50:49;4.60;99.90
46217;DHT22;47258;59.424;13.482;2024-03-02T06:53:16;4.60;99.90
46217;DHT22;47258;59.424;13.482;2024-03-02T06:55:45;4.70;99.90
46217;DHT22;47258;59.424;13.482;2024-03-02T06:58:14;4.70;99.90
46217;DHT22;47258;59.424;13.482;2024-03-02T07:00:43;4.70;99.90
46217;DHT22;47258;59.424;13.482;2024-03-02T07:03:13;4.60;99.90
46217;DHT22;47258;59.424;13.482;2024-03-02T07:05:39;4.60;99.90
46217;DHT22;47258;59.424;13.482;2024-03-02T07:08:07;4.60;99.90
46217;DHT22;47258;59.424;13.482;2024-03-02T07:10:33;4.60;99.90
46217;DHT22;47258;59.424;13.482;2024-03-02T07:12:59;4.60;99.90
46217;DHT22;47258;59.424;13.482;2024-03-02T07:15:25;4.50;99.90
46217;DHT22;47258;59.424;13.482;2024-03-02T07:17:53;4.50;99.90
46217;DHT22;47258;59.424;13.482;2024-03-02T07:20:19;4.50;99.90
46217;DHT22;47258;59.424;13.482;2024-03-02T07:22:45;4.50;99.90
46217;DHT22;47258;59.424;13.482;2024-03-02T07:25:11;4.60;99.90
46217;DHT22;47258;59.424;13.482;2024-03-02T07:27:38;4.60;99.90
46217;DHT22;47258;59.424;13.482;2024-03-02T07:30:04;4.70;99.90
46217;DHT22;47258;59.424;13.482;2024-03-02T07:32:30;4.70;99.90
46217;DHT22;47258;59.424;13.482;2024-03-02T07:34:56;4.70;99.90
46217;DHT22;47258;59.424;13.482;2024-03-02T07:37:25;4.80;99.90
46217;DHT22;47258;59.424;13.482;2024-03-02T07:39:51;4.70;99.90
46217;DHT22;47258;59.424;13.482;2024-03-02T07:42:20;4.70;99.90
46217;DHT22;47258;59.424;13.482;2024-03-02T07:44:45;4.80;99.90
46217;DHT22;47258;59.424;13.482;2024-03-02T07:47:11;4.80;99.90
46217;DHT22;47258;59.424;13.482;2024-03-02T07:49:38;4.80;99.90
46217;DHT22;47258;59.424;13.482;2024-03-02T07:52:04;4.80;99.90
46217;DHT22;47258;59.424;13.482;2024-03-02T07:54:29;4.70;99.90
46217;DHT22;47258;59.424;13.482;2024-03-02T07:56:58;4.70;99.90
46217;DHT22;47258;59.424;13.482;2024-03-02T07:59:24;4.80;99.90
46217;DHT22;47258;59.424;13.482;2024-03-02T08:01:50;4.70;99.90
46217;DHT22;47258;59.424;13.482;2024-03-02T08:04:17;4.80;99.90
46217;DHT22;47258;59.424;13.482;2024-03-02T08:06:43;4.70;99.90
46217;DHT22;47258;59.424;13.482;2024-03-02T08:09:09;4.70;99.90
46217;DHT22;47258;59.424;13.482;2024-03-02T08:11:36;4.70;99.90
46217;DHT22;47258;59.424;13.482;2024-03-02T08:14:02;4.70;99.90
46217;DHT22;47258;59.424;13.482;2024-03-02T08:16:29;4.80;99.90
46217;DHT22;47258;59.424;13.482;2024-03-02T08:18:55;4.80;99.90
46217;DHT22;47258;59.424;13.482;2024-03-02T08:21:23;4.80;99.90
46217;DHT22;47258;59.424;13.482;2024-03-02T08:23:50;4.80;99.90
46217;DHT22;47258;59.424;13.482;2024-03-02T08:26:16;4.80;99.90
46217;DHT22;47258;59.424;13.482;2024-03-02T08:28:42;4.80;99.90
46217;DHT22;47258;59.424;13.482;2024-03-02T08:31:08;4.80;99.90
46217;DHT22;47258;59.424;13.482;2024-03-02T08:33:34;4.90;99.90
46217;DHT22;47258;59.424;13.482;2024-03-02T08:36:00;4.90;99.90
46217;DHT22;47258;59.424;13.482;2024-03-02T08:38:27;4.90;99.90
46217;DHT22;47258;59.424;13.482;2024-03-02T08:40:53;4.90;99.90
46217;DHT22;47258;59.424;13.482;2024-03-02T08:43:19;4.90;99.90
46217;DHT22;47258;59.424;13.482;2024-03-02T08:45:45;4.90;99.90
46217;DHT22;47258;59.424;13.482;2024-03-02T08:48:12;4.90;99.90
46217;DHT22;47258;59.424;13.482;2024-03-02T08:50:38;4.90;99.90
46217;DHT22;47258;59.424;13.482;2024-03-02T08:53:04;4.90;99.90
46217;DHT22;47258;59.424;13.482;2024-03-02T08:55:31;4.90;99.90
46217;DHT22;47258;59.424;13.482;2024-03-02T08:57:57;4.90;99.90
46217;DHT22;47258;59.424;13.482;2024-03-02T09:00:23;4.90;99.90
46217;DHT22;47258;59.424;13.482;2024-03-02T09:02:50;4.90;99.90
46217;DHT22;47258;59.424;13.482;2024-03-02T09:05:16;4.90;99.90
46217;DHT22;47258;59.424;13.482;2024-03-02T09:07:42;4.90;99.90
46217;DHT22;47258;59.424;13.482;2024-03-02T09:10:08;5.00;99.90
46217;DHT22;47258;59.424;13.482;2024-03-02T09:12:35;5.00;99.90
46217;DHT22;47258;59.424;13.482;2024-03-02T09:15:01;5.00;99.90
46217;DHT22;47258;59.424;13.482;2024-03-02T09:17:29;5.00;99.90
46217;DHT22;47258;59.424;13.482;2024-03-02T09:19:55;5.10;99.90
46217;DHT22;47258;59.424;13.482;2024-03-02T09:22:21;5.20;99.90
46217;DHT22;47258;59.424;13.482;2024-03-02T09:24:47;5.20;99.90
46217;DHT22;47258;59.424;13.482;2024-03-02T09:27:13;5.20;99.90
46217;DHT22;47258;59.424;13.482;2024-03-02T09:29:38;5.20;99.90
46217;DHT22;47258;59.424;13.482;2024-03-02T09:32:05;5.30;99.90
46217;DHT22;47258;59.424;13.482;2024-03-02T09:34:31;5.30;99.90
46217;DHT22;47258;59.424;13.482;2024-03-02T09:36:57;5.40;99.90
46217;DHT22;47258;59.424;13.482;2024-03-02T09:39:24;5.40;99.90
46217;DHT22;47258;59.424;13.482;2024-03-02T09:41:50;5.40;99.90
46217;DHT22;47258;59.424;13.482;2024-03-02T09:44:16;5.50;99.90
46217;DHT22;47258;59.424;13.482;2024-03-02T09:46:43;5.50;99.90
46217;DHT22;47258;59.424;13.482;2024-03-02T09:49:10;5.60;99.90
46217;DHT22;47258;59.424;13.482;2024-03-02T09:51:37;5.60;99.90
46217;DHT22;47258;59.424;13.482;2024-03-02T09:54:03;5.60;99.90
46217;DHT22;47258;59.424;13.482;2024-03-02T09:56:29;5.60;99.90
46217;DHT22;47258;59.424;13.482;2024-03-02T09:58:54;5.60;99.90
46217;DHT22;47258;59.424;13.482;2024-03-02T10:01:20;5.60;99.90
46217;DHT22;47258;59.424;13.482;2024-03-02T10:03:47;5.60;99.90
46217;DHT22;47258;59.424;13.482;2024-03-02T10:06:33;5.60;99.90
46217;DHT22;47258;59.424;13.482;2024-03-02T10:08:59;5.60;99.90
46217;DHT22;47258;59.424;13.482;2024-03-02T10:11:33;5.60;99.90
46217;DHT22;47258;59.424;13.482;2024-03-02T10:14:10;5.60;99.90
46217;DHT22;47258;59.424;13.482;2024-03-02T10:16:39;5.60;99.90
46217;DHT22;47258;59.424;13.482;2024-03-02T10:19:22;5.60;99.90
46217;DHT22;47258;59.424;13.482;2024-03-02T10:21:54;5.60;99.90
46217;DHT22;47258;59.424;13.482;2024-03-02T10:24:21;5.60;99.90
46217;DHT22;47258;59.424;13.482;2024-03-02T10:26:48;5.60;99.90
46217;DHT22;47258;59.424;13.482;2024-03-02T10:29:14;5.50;99.90
46217;DHT22;47258;59.424;13.482;2024-03-02T10:31:44;5.50;99.90
46217;DHT22;47258;59.424;13.482;2024-03-02T10:34:12;5.50;99.90
46217;DHT22;47258;59.424;13.482;2024-03-02T10:36:41;5.50;99.90
46217;DHT22;47258;59.424;13.482;2024-03-02T10:39:07;5.50;99.90
46217;DHT22;47258;59.424;13.482;2024-03-02T10:41:37;5.40;99.90
46217;DHT22;47258;59.424;13.482;2024-03-02T10:44:08;5.40;99.90
46217;DHT22;47258;59.424;13.482;2024-03-02T10:46:36;5.40;99.90
46217;DHT22;47258;59.424;13.482;2024-03-02T10:49:03;5.40;99.90
46217;DHT22;47258;59.424;13.482;2024-03-02T10:51:31;5.40;99.90
46217;DHT22;47258;59.424;13.482;2024-03-02T10:53:58;5.40;99.90
46217;DHT22;47258;59.424;13.482;2024-03-02T10:56:43;5.30;99.90
46217;DHT22;47258;59.424;13.482;2024-03-02T10:59:34;5.40;99.90
46217;DHT22;47258;59.424;13.482;2024-03-02T11:02:01;5.40;99.90
46217;DHT22;47258;59.424;13.482;2024-03-02T11:04:29;5.30;99.90
46217;DHT22;47258;59.424;13.482;2024-03-02T11:07:00;5.30;99.90
46217;DHT22;47258;59.424;13.482;2024-03-02T11:09:27;5.30;99.90
46217;DHT22;47258;59.424;13.482;2024-03-02T11:14:25;5.30;99.90
46217;DHT22;47258;59.424;13.482;2024-03-02T11:16:52;5.30;99.90
46217;DHT22;47258;59.424;13.482;2024-03-02T11:19:18;5.30;99.90
46217;DHT22;47258;59.424;13.482;2024-03-02T11:21:44;5.30;99.90
46217;DHT22;47258;59.424;13.482;2024-03-02T11:24:29;5.30;99.90
46217;DHT22;47258;59.424;13.482;2024-03-02T11:26:59;5.30;99.90
46217;DHT22;47258;59.424;13.482;2024-03-02T11:29:46;5.30;99.90
46217;DHT22;47258;59.424;13.482;2024-03-02T11:32:22;5.40;99.90
46217;DHT22;47258;59.424;13.482;2024-03-02T11:34:50;5.40;99.90
46217;DHT22;47258;59.424;13.482;2024-03-02T11:37:20;5.40;99.90
46217;DHT22;47258;59.424;13.482;2024-03-02T11:39:50;5.40;99.90
46217;DHT22;47258;59.424;13.482;2024-03-02T11:42:16;5.50;99.90
46217;DHT22;47258;59.424;13.482;2024-03-02T11:44:45;5.50;99.90
46217;DHT22;47258;59.424;13.482;2024-03-02T11:47:13;5.50;99.90
46217;DHT22;47258;59.424;13.482;2024-03-02T11:49:45;5.50;99.90
46217;DHT22;47258;59.424;13.482;2024-03-02T11:52:12;5.60;99.90
46217;DHT22;47258;59.424;13.482;2024-03-02T11:54:40;5.60;99.90
46217;DHT22;47258;59.424;13.482;2024-03-02T11:57:07;5.50;99.90
46217;DHT22;47258;59.424;13.482;2024-03-02T11:59:33;5.50;99.90
46217;DHT22;47258;59.424;13.482;2024-03-02T12:01:59;5.50;99.90
46217;DHT22;47258;59.424;13.482;2024-03-02T12:04:25;5.50;99.90
46217;DHT22;47258;59.424;13.482;2024-03-02T12:07:00;5.50;99.90
46217;DHT22;47258;59.424;13.482;2024-03-02T12:09:26;5.60;99.90
46217;DHT22;47258;59.424;13.482;2024-03-02T12:12:08;5.60;99.90
46217;DHT22;47258;59.424;13.482;2024-03-02T12:14:36;5.50;99.90
46217;DHT22;47258;59.424;13.482;2024-03-02T12:17:03;5.50;99.90
46217;DHT22;47258;59.424;13.482;2024-03-02T12:19:29;5.50;99.90
46217;DHT22;47258;59.424;13.482;2024-03-02T12:21:59;5.50;99.90
46217;DHT22;47258;59.424;13.482;2024-03-02T12:24:27;5.50;99.90
46217;DHT22;47258;59.424;13.482;2024-03-02T12:26:54;5.50;99.90
46217;DHT22;47258;59.424;13.482;2024-03-02T12:29:20;5.50;99.90
46217;DHT22;47258;59.424;13.482;2024-03-02T12:31:52;5.50;99.90
46217;DHT22;47258;59.424;13.482;2024-03-02T12:34:18;5.50;99.90
46217;DHT22;47258;59.424;13.482;2024-03-02T12:36:46;5.40;99.90
46217;DHT22;47258;59.424;13.482;2024-03-02T12:39:15;5.40;99.90
46217;DHT22;47258;59.424;13.482;2024-03-02T12:41:41;5.40;99.90
46217;DHT22;47258;59.424;13.482;2024-03-02T12:44:08;5.50;99.90
46217;DHT22;47258;59.424;13.482;2024-03-02T12:46:34;5.50;99.90
46217;DHT22;47258;59.424;13.482;2024-03-02T12:49:21;5.50;99.90
46217;DHT22;47258;59.424;13.482;2024-03-02T12:51:47;5.50;99.90
46217;DHT22;47258;59.424;13.482;2024-03-02T12:54:22;5.50;99.90
46217;DHT22;47258;59.424;13.482;2024-03-02T12:56:49;5.50;99.90
46217;DHT22;47258;59.424;13.482;2024-03-02T12:59:24;5.50;99.90
46217;DHT22;47258;59.424;13.482;2024-03-02T13:01:55;5.40;99.90
46217;DHT22;47258;59.424;13.482;2024-03-02T13:04:29;5.40;99.90
46217;DHT22;47258;59.424;13.482;2024-03-02T13:06:56;5.40;99.90
46217;DHT22;47258;59.424;13.482;2024-03-02T13:09:23;5.40;99.90
46217;DHT22;47258;59.424;13.482;2024-03-02T13:11:49;5.40;99.90
46217;DHT22;47258;59.424;13.482;2024-03-02T13:14:15;5.40;99.90
46217;DHT22;47258;59.424;13.482;2024-03-02T13:16:42;5.40;99.90
46217;DHT22;47258;59.424;13.482;2024-03-02T13:19:18;5.40;99.90
46217;DHT22;47258;59.424;13.482;2024-03-02T13:21:46;5.40;99.90
46217;DHT22;47258;59.424;13.482;2024-03-02T13:24:12;5.40;99.90
46217;DHT22;47258;59.424;13.482;2024-03-02T13:26:38;5.40;99.90
46217;DHT22;47258;59.424;13.482;2024-03-02T13:29:05;5.30;99.90
46217;DHT22;47258;59.424;13.482;2024-03-02T13:31:31;5.30;99.90
46217;DHT22;47258;59.424;13.482;2024-03-02T13:33:57;5.30;99.90
46217;DHT22;47258;59.424;13.482;2024-03-02T13:36:22;5.40;99.90
46217;DHT22;47258;59.424;13.482;2024-03-02T13:38:49;5.40;99.90
46217;DHT22;47258;59.424;13.482;2024-03-02T13:41:15;5.30;99.90
46217;DHT22;47258;59.424;13.482;2024-03-02T13:43:41;5.30;99.90
46217;DHT22;47258;59.424;13.482;2024-03-02T13:46:06;5.30;99.90
46217;DHT22;47258;59.424;13.482;2024-03-02T13:48:32;5.30;99.90
46217;DHT22;47258;59.424;13.482;2024-03-02T13:50:58;5.30;99.90
46217;DHT22;47258;59.424;13.482;2024-03-02T13:53:24;5.40;99.90
46217;DHT22;47258;59.424;13.482;2024-03-02T13:55:50;5.40;99.90
46217;DHT22;47258;59.424;13.482;2024-03-02T13:58:16;5.40;99.90
46217;DHT22;47258;59.424;13.482;2024-03-02T14:00:44;5.40;99.90
46217;DHT22;47258;59.424;13.482;2024-03-02T14:03:10;5.40;99.90
46217;DHT22;47258;59.424;13.482;2024-03-02T14:05:36;5.40;99.90
46217;DHT22;47258;59.424;13.482;2024-03-02T14:08:02;5.40;99.90
46217;DHT22;47258;59.424;13.482;2024-03-02T14:10:29;5.40;99.90
46217;DHT22;47258;59.424;13.482;2024-03-02T14:12:55;5.40;99.90
46217;DHT22;47258;59.424;13.482;2024-03-02T14:15:22;5.50;99.90
46217;DHT22;47258;59.424;13.482;2024-03-02T14:17:47;5.50;99.90
46217;DHT22;47258;59.424;13.482;2024-03-02T14:20:13;5.50;99.90
46217;DHT22;47258;59.424;13.482;2024-03-02T14:22:39;5.50;99.90
46217;DHT22;47258;59.424;13.482;2024-03-02T14:25:05;5.50;99.90
46217;DHT22;47258;59.424;13.482;2024-03-02T14:27:31;5.50;99.90
46217;DHT22;47258;59.424;13.482;2024-03-02T14:29:57;5.50;99.90
46217;DHT22;47258;59.424;13.482;2024-03-02T14:32:23;5.50;99.90
46217;DHT22;47258;59.424;13.482;2024-03-02T14:34:49;5.50;99.90
46217;DHT22;47258;59.424;13.482;2024-03-02T14:37:15;5.50;99.90
46217;DHT22;47258;59.424;13.482;2024-03-02T14:39:41;5.50;99.90
46217;DHT22;47258;59.424;13.482;2024-03-02T14:42:07;5.60;99.90
46217;DHT22;47258;59.424;13.482;2024-03-02T14:44:33;5.50;99.90
46217;DHT22;47258;59.424;13.482;2024-03-02T14:47:03;5.50;99.90
46217;DHT22;47258;59.424;13.482;2024-03-02T14:49:30;5.50;99.90
46217;DHT22;47258;59.424;13.482;2024-03-02T14:51:56;5.50;99.90
46217;DHT22;47258;59.424;13.482;2024-03-02T14:54:22;5.60;99.90
46217;DHT22;47258;59.424;13.482;2024-03-02T14:56:47;5.60;99.90
46217;DHT22;47258;59.424;13.482;2024-03-02T14:59:13;5.60;99.90
46217;DHT22;47258;59.424;13.482;2024-03-02T15:01:39;5.60;99.90
46217;DHT22;47258;59.424;13.482;2024-03-02T15:04:05;5.60;99.90
46217;DHT22;47258;59.424;13.482;2024-03-02T15:06:30;5.60;99.90
46217;DHT22;47258;59.424;13.482;2024-03-02T15:08:56;5.60;99.90
46217;DHT22;47258;59.424;13.482;2024-03-02T15:11:22;5.60;99.90
46217;DHT22;47258;59.424;13.482;2024-03-02T15:13:50;5.60;99.90
46217;DHT22;47258;59.424;13.482;2024-03-02T15:16:16;5.60;99.90
46217;DHT22;47258;59.424;13.482;2024-03-02T15:18:42;5.50;99.90
46217;DHT22;47258;59.424;13.482;2024-03-02T15:21:08;5.50;99.90
46217;DHT22;47258;59.424;13.482;2024-03-02T15:23:33;5.60;99.90
46217;DHT22;47258;59.424;13.482;2024-03-02T15:25:59;5.50;99.90
46217;DHT22;47258;59.424;13.482;2024-03-02T15:28:25;5.50;99.90
46217;DHT22;47258;59.424;13.482;2024-03-02T15:30:51;5.50;99.90
46217;DHT22;47258;59.424;13.482;2024-03-02T15:33:17;5.50;99.90